• Join FlightAware (Why Join?)
  • Login
  • US Flag 
03:41PM EDT


 

Airport Tracker/Info


-or-


 

Live Flight TrackerFlight Track Log ✈ SWA1512 ✈ 04-May-2013 ✈ KSMF - KPDX

Flight Track Log - Related Links

Times and Time Zones

All times are in EDT time to prevent confusion due to time zone crossing. See the SWA1512 flight status page for this flight to view local times or setup timezone preferences in your user account.

Time Position Orientation Groundspeed Altitude Reporting Facility
EDT Latitude Longitude Course Direction KTS MPH feet Rate Location/Type
07:31PM 38.8458 -121.6008 360° North 239 275 6,200  Level Oakland Center
07:32PM 38.9183 -121.6361 339° North 271 312 9,500 3,060 Climbing Oakland Center
07:33PM 38.9972 -121.6683 342° North 298 343 12,500 3,000 Climbing Oakland Center
07:34PM 39.0908 -121.6853 352° North 332 382 15,600 3,180 Climbing Oakland Center
07:35PM 39.1947 -121.7047 352° North 369 425 19,100 3,180 Climbing Oakland Center
07:36PM 39.3025 -121.7253 352° North 389 448 22,200 2,400 Climbing Oakland Center
07:37PM 39.4147 -121.7497 350° North 406 467 24,000 2,040 Climbing Oakland Center
07:38PM 39.5261 -121.7700 352° North 413 475 26,400 2,520 Climbing Oakland Center
07:39PM 39.6675 -121.7972 352° North 428 493 29,200 2,340 Climbing Oakland Center
07:40PM 39.7878 -121.8222 351° North 438 504 31,200 2,100 Climbing Oakland Center
07:41PM 39.9061 -121.8450 352° North 435 501 33,500 1,860 Climbing Oakland Center
07:42PM 40.0239 -121.8683 351° North 433 498 35,100 1,560 Climbing Oakland Center
07:43PM 40.1422 -121.8931 351° North 435 501 36,700 1,560 Climbing Oakland Center
07:44PM 40.2592 -121.9158 352° North 432 497 38,400 1,320 Climbing Oakland Center
07:45PM 40.3742 -121.9392 351° North 426 490 39,500 780 Climbing Oakland Center
07:46PM 40.5142 -121.9681 351° North 428 493 40,000 240 Climbing Oakland Center
07:47PM 40.6306 -121.9928 351° North 427 491 40,000  Level Oakland Center
07:48PM 40.7453 -122.0147 352° North 421 484 40,000  Level Oakland Center
07:49PM 40.8619 -122.0392 351° North 423 487 40,000  Level Oakland Center
07:50PM 40.9794 -122.0636 351° North 427 491 40,000  Level Oakland Center
07:51PM 41.0978 -122.0897 351° North 430 495 40,000  Level Oakland Center
07:52PM 41.1942 -122.1125 350° North 438 504 40,000  Level Seattle Center
07:53PM 41.3133 -122.1367 351° North 435 501 40,000  Level Seattle Center
07:54PM 41.4303 -122.1603 351° North 428 493 40,000  Level Seattle Center
07:55PM 41.5503 -122.1847 351° North 431 496 40,000  Level Seattle Center
07:56PM 41.6675 -122.2100 351° North 426 490 40,000  Level Seattle Center
07:57PM 41.7839 -122.2336 351° North 421 484 40,000  Level Seattle Center
07:58PM 41.9006 -122.2583 351° North 420 483 40,000  Level Seattle Center
07:59PM 42.0203 -122.2828 351° North 427 491 40,000  Level Seattle Center
08:00PM 42.1394 -122.3081 351° North 428 493 40,000  Level Seattle Center
08:01PM 42.2594 -122.3339 351° North 431 496 40,000  Level Seattle Center
08:02PM 42.3767 -122.3581 351° North 424 488 40,000  Level Seattle Center
08:03PM 42.4961 -122.3856 350° North 428 493 40,000  Level Seattle Center
08:04PM 42.6150 -122.4108 351° North 429 494 40,000  Level Seattle Center
08:05PM 42.7533 -122.4406 351° North 425 489 40,000  Level Seattle Center
08:06PM 42.8694 -122.4661 351° North 422 486 40,000  Level Seattle Center
08:07PM 42.9864 -122.4917 351° North 424 488 40,000  Level Seattle Center
08:08PM 43.1014 -122.5169 351° North 417 480 40,000  Level Seattle Center
08:09PM 43.2181 -122.5419 351° North 420 483 40,000  Level Seattle Center
08:10PM 43.3314 -122.5683 350° North 412 474 40,000  Level Seattle Center
08:11PM 43.4442 -122.5933 351° North 409 471 40,000  Level Seattle Center
08:12PM 43.5564 -122.6178 351° North 408 470 40,000 -60 Level Seattle Center
08:13PM 43.6700 -122.6444 350° North 412 474 39,900 -1,200 Descending Seattle Center
08:14PM 43.7797 -122.6672 351° North 399 459 37,600 -2,220 Descending Seattle Center
08:15PM 43.8858 -122.6919 350° North 387 445 35,400 -2,100 Descending Seattle Center
08:16PM 43.9875 -122.7144 351° North 372 428 33,400 -2,040 Descending Seattle Center
08:18PM 44.0839 -122.7361 351° North 357 411 31,300 -1,980 Descending Seattle Center
08:19PM 44.1767 -122.7500 354° North 342 394 29,400 -2,160 Descending Seattle Center
08:20PM 44.2800 -122.7389 North 317 365 27,000 -2,040 Descending Seattle Center
08:21PM 44.3553 -122.7319 North 310 357 25,300 -1,740 Descending Seattle Center
08:22PM 44.4389 -122.7247 North 305 351 23,500 -1,800 Descending Seattle Center
08:23PM 44.5203 -122.7167 North 296 341 21,700 -1,800 Descending Seattle Center
08:24PM 44.6017 -122.7092 North 295 339 19,900 -1,800 Descending Seattle Center
08:25PM 44.6847 -122.7003 North 299 344 18,100 -1,980 Descending Seattle Center
08:25PM 44.7361 -122.6942 North 297 342 17,000 -1,800 Descending Seattle Center
08:26PM 44.7658 -122.6919 North 297 342 16,300 -1,800 Descending Seattle Center
08:26PM 44.8167 -122.6861 North 290 334 15,200 -1,980 Descending Seattle Center
08:27PM 44.8611 -122.6842 North 289 333 14,300 -1,200 Descending Seattle Center
08:27PM 44.8964 -122.6936 349° North 311 358 14,000 -900 Descending Seattle Center
08:28PM 44.9431 -122.7036 351° North 298 343 13,400 -1,020 Descending Seattle Center
08:28PM 44.9867 -122.7122 352° North 303 349 13,000 -1,020 Descending Seattle Center
08:29PM 45.0269 -122.7208 351° North 304 350 12,400 -1,080 Descending Seattle Center
08:29PM 45.0836 -122.7311 353° North 302 348 11,700 -1,140 Descending Seattle Center
08:30PM 45.1083 -122.7364 351° North 301 346 11,300 -1,200 Descending Seattle Center
08:30PM 45.1631 -122.7483 351° North 289 333 10,500 -1,320 Descending Seattle Center
08:31PM 45.1869 -122.7522 353° North 290 334 10,000 -1,560 Descending Seattle Center
08:31PM 45.2397 -122.7633 352° North 287 330 9,100 -1,380 Descending Seattle Center
08:32PM 45.2642 -122.7692 350° North 284 327 8,600 -1,380 Descending Seattle Center
08:32PM 45.3011 -122.7783 350° North 283 326 8,000 -1,500 Descending Seattle Center
08:33PM 45.3414 -122.7861 352° North 282 325 7,100 -1,500 Descending Seattle Center
08:33PM 45.3844 -122.7939 353° North 275 316 6,400 -1,440 Descending Seattle Center
08:34PM 45.4167 -122.8028 349° North 278 320 5,700 -1,380 Descending Seattle Center
08:34PM 45.4569 -122.8108 352° North 261 300 5,000 -1,380 Descending Seattle Center
08:35PM 45.4875 -122.8178 351° North 265 305 4,300 -1,440 Descending Seattle Center
08:35PM 45.5383 -122.8272 353° North 255 293 3,400 -1,320 Descending Seattle Center
08:36PM 45.5575 -122.8294 355° North 257 296 3,000 -540 Descending Seattle Center
08:36PM 45.6031 -122.8256 North 220 253 2,900 -240 Descending Seattle Center
08:37PM 45.6197 -122.8206 12° North 234 269 2,800 -240 Descending Seattle Center
08:37PM 45.6425 -122.7850 47° Northeast 152 175 2,700 -420 Descending Seattle Center
08:38PM 45.6422 -122.7683 91° East 175 201 2,400 -1,020 Descending Seattle Center
08:38PM 45.6356 -122.7292 104° East 150 173 1,800 -1,020 Descending Seattle Center
08:39PM 45.6306 -122.7083 109° East 163 188 1,400 -600 Descending Seattle Center
08:39PM 45.6217 -122.6700 108° East 146 168 1,200 -540 Descending Seattle Center
08:40PM 45.6178 -122.6539 109° East 156 180 900 -720 Descending Seattle Center
08:40PM 45.6033 -122.6219 123° Southeast 122 140 400 -420 Descending Seattle Center
08:41PM 45.5981 -122.6003 109° East 148 170 500 180 Climbing Seattle Center